Time;durP1;ratioP1;P1;durP2;ratioP2;P2;SDS_P1;SDS_P2;PMS_P1;PMS_P2;Temp;Humidity;BMP_temperature;BMP_pressure;BME280_temperature;BME280_humidity;BME280_pressure;Samples;Min_cycle;Max_cycle;Signal;HPM_P1;HPM_P2
2021/10/19 00:01:30;;;;;;;8.25;4.60;;;;;;;22.18;45.51;101714.19;5014589;28;20104;-60
2021/10/19 00:03:55;;;;;;;7.88;3.47;;;;;;;22.18;45.60;101709.59;5015241;28;20593;-59
2021/10/19 00:06:21;;;;;;;8.35;3.80;;;;;;;22.17;44.99;101702.41;5014696;28;20034;-60
2021/10/19 00:08:46;;;;;;;7.88;4.20;;;;;;;22.13;45.22;101702.97;5013443;28;20396;-60
2021/10/19 00:11:12;;;;;;;6.82;4.15;;;;;;;22.11;45.11;101703.13;4997194;28;20021;-60
2021/10/19 00:13:38;;;;;;;8.10;4.28;;;;;;;22.09;45.88;101688.84;5013182;28;20030;-61
2021/10/19 00:16:04;;;;;;;7.07;3.78;;;;;;;22.05;45.94;101684.78;5013677;28;20034;-60
2021/10/19 00:18:30;;;;;;;6.30;3.90;;;;;;;21.98;45.38;101675.63;5014631;28;20033;-59
2021/10/19 00:20:55;;;;;;;8.82;3.88;;;;;;;21.98;45.52;101694.72;5013083;28;20370;-60
2021/10/19 00:23:21;;;;;;;5.80;4.30;;;;;;;21.92;46.07;101703.63;5013689;28;20121;-60
2021/10/19 00:25:46;;;;;;;8.40;4.22;;;;;;;21.89;45.74;101699.38;5005291;28;20505;-60
2021/10/19 00:28:12;;;;;;;4.95;3.60;;;;;;;21.86;46.68;101709.81;5011184;28;20030;-60
2021/10/19 00:30:37;;;;;;;6.60;4.10;;;;;;;21.81;46.30;101707.59;5014104;28;20037;-59
2021/10/19 00:33:02;;;;;;;11.77;4.28;;;;;;;21.77;46.69;101713.63;5012915;28;20107;-60
2021/10/19 00:35:28;;;;;;;11.23;4.18;;;;;;;21.75;46.79;101707.47;5014504;28;20036;-60
2021/10/19 00:37:54;;;;;;;6.28;3.92;;;;;;;21.74;47.04;101713.97;5014477;28;20033;-60
2021/10/19 00:40:19;;;;;;;11.65;4.28;;;;;;;21.73;46.97;101704.06;5013741;28;20037;-60
2021/10/19 00:42:45;;;;;;;9.88;4.20;;;;;;;21.73;46.56;101704.06;5014368;28;20029;-60
2021/10/19 00:45:10;;;;;;;6.72;3.55;;;;;;;21.72;47.04;101710.59;5014540;28;20063;-60
2021/10/19 00:47:46;;;;;;;9.05;4.25;;;;;;;21.71;46.83;101704.28;5012928;28;20122;-60
2021/10/19 00:50:11;;;;;;;6.38;4.25;;;;;;;21.65;47.28;101695.94;4998609;28;20017;-60
2021/10/19 00:52:37;;;;;;;10.35;4.30;;;;;;;21.63;47.89;101703.47;5013045;28;20028;-59
2021/10/19 00:55:03;;;;;;;8.88;5.15;;;;;;;21.61;47.23;101711.00;5012910;28;20026;-60
2021/10/19 00:57:29;;;;;;;6.75;4.38;;;;;;;21.58;47.86;101708.63;5014493;28;20034;-59
2021/10/19 00:59:54;;;;;;;6.28;4.60;;;;;;;21.56;47.83;101707.94;5014966;28;20029;-60
2021/10/19 01:02:19;;;;;;;7.57;4.78;;;;;;;21.52;48.27;101709.34;5014499;28;20030;-60
2021/10/19 01:04:45;;;;;;;8.98;4.85;;;;;;;21.44;48.47;101699.28;5013483;28;20031;-60
2021/10/19 01:07:12;;;;;;;14.63;5.68;;;;;;;21.41;47.83;101703.22;5012726;28;20033;-60
2021/10/19 01:09:38;;;;;;;11.55;4.72;;;;;;;21.36;48.52;101700.19;5014320;28;20034;-60
2021/10/19 01:12:05;;;;;;;8.38;5.05;;;;;;;21.28;48.27;101702.97;5013379;28;20109;-62
2021/10/19 01:14:30;;;;;;;10.93;5.25;;;;;;;21.20;49.21;101703.00;5013752;28;20063;-60
2021/10/19 01:16:56;;;;;;;8.35;5.03;;;;;;;21.14;48.63;101698.25;5014292;28;20104;-58
2021/10/19 01:19:22;;;;;;;12.50;4.65;;;;;;;21.09;49.10;101699.81;5013130;28;20083;-58
2021/10/19 01:21:52;;;;;;;8.48;5.10;;;;;;;20.98;49.08;101687.41;4996530;28;20034;-59
2021/10/19 01:24:17;;;;;;;8.38;5.03;;;;;;;20.96;49.63;101699.50;5014369;28;20080;-59
2021/10/19 01:26:43;;;;;;;9.68;4.93;;;;;;;20.89;49.54;101683.00;5014337;28;20022;-60
2021/10/19 01:29:08;;;;;;;11.02;4.75;;;;;;;20.82;49.38;101679.28;5013240;28;20125;-60
2021/10/19 01:31:33;;;;;;;8.40;4.80;;;;;;;20.80;49.77;101678.59;5014339;28;20458;-60
2021/10/19 01:33:59;;;;;;;7.60;4.80;;;;;;;20.76;49.95;101671.81;5014783;28;20100;-61
2021/10/19 01:36:24;;;;;;;12.07;5.97;;;;;;;20.74;49.50;101679.31;5013600;28;20029;-59
2021/10/19 01:38:49;;;;;;;7.28;4.65;;;;;;;20.75;50.27;101670.94;5014366;28;20541;-60
2021/10/19 01:41:15;;;;;;;6.15;4.38;;;;;;;20.74;50.20;101671.16;5014283;28;20049;-60
2021/10/19 01:43:42;;;;;;;8.73;4.93;;;;;;;20.70;50.35;101669.78;5018541;28;20068;-60
2021/10/19 01:46:07;;;;;;;10.20;5.10;;;;;;;20.69;50.28;101662.63;5016768;28;20543;-61
2021/10/19 01:48:33;;;;;;;8.27;4.68;;;;;;;20.70;50.80;101657.00;5016960;28;20026;-61
2021/10/19 01:50:59;;;;;;;9.55;4.93;;;;;;;20.70;50.10;101657.00;5017144;28;20034;-61
2021/10/19 01:53:25;;;;;;;6.63;4.07;;;;;;;20.73;50.37;101650.38;5000244;28;20030;-61
2021/10/19 01:55:50;;;;;;;10.45;5.07;;;;;;;20.71;50.63;101642.38;5016169;28;20059;-60
2021/10/19 01:58:21;;;;;;;7.55;4.82;;;;;;;20.76;50.74;101652.75;5016769;28;20425;-61
2021/10/19 02:00:47;;;;;;;8.13;5.28;;;;;;;20.79;50.88;101650.53;5016696;28;20037;-60
2021/10/19 02:03:13;;;;;;;7.68;5.10;;;;;;;20.79;50.21;101633.34;5017598;28;20026;-60
2021/10/19 02:05:38;;;;;;;10.23;5.63;;;;;;;20.83;50.79;101631.94;5016246;28;20021;-61
2021/10/19 02:08:04;;;;;;;9.45;5.25;;;;;;;20.82;51.27;101622.09;5017919;28;20022;-61
2021/10/19 02:10:31;;;;;;;9.80;5.10;;;;;;;20.82;50.81;101622.94;5017246;28;20041;-61
2021/10/19 02:12:57;;;;;;;10.43;5.40;;;;;;;20.82;50.98;101619.38;5016923;28;20120;-62
2021/10/19 02:15:26;;;;;;;11.32;4.80;;;;;;;20.84;51.65;101614.59;5016212;28;20117;-61
2021/10/19 02:17:51;;;;;;;10.13;5.45;;;;;;;20.83;51.02;101601.97;5018053;28;20496;-62
2021/10/19 02:20:17;;;;;;;9.30;5.20;;;;;;;20.87;51.03;101595.16;5016568;28;20034;-62
2021/10/19 02:22:42;;;;;;;9.23;5.60;;;;;;;20.91;51.60;101593.75;5017903;28;20030;-61
2021/10/19 02:25:08;;;;;;;8.23;4.78;;;;;;;20.95;50.99;101578.78;5017405;28;20036;-62
2021/10/19 02:27:33;;;;;;;8.48;4.15;;;;;;;20.99;51.76;101582.84;5017218;28;20049;-62
2021/10/19 02:29:59;;;;;;;6.60;4.32;;;;;;;21.01;51.64;101571.75;5016520;28;20040;-62
2021/10/19 02:32:24;;;;;;;8.05;4.43;;;;;;;21.07;51.88;101571.06;4999164;28;20054;-62
2021/10/19 02:34:50;;;;;;;13.88;4.82;;;;;;;21.08;51.26;101562.72;5017772;28;20440;-62
2021/10/19 02:37:15;;;;;;;7.78;4.97;;;;;;;21.12;51.64;101553.19;5016467;28;20029;-62
2021/10/19 02:39:40;;;;;;;9.13;4.55;;;;;;;21.19;51.50;101554.13;5017065;28;20029;-62
2021/10/19 02:42:06;;;;;;;10.98;6.20;;;;;;;21.23;51.05;101552.75;5015830;28;20028;-62
2021/10/19 02:44:31;;;;;;;12.27;5.57;;;;;;;21.27;51.31;101556.81;5016766;28;20034;-62
2021/10/19 02:46:57;;;;;;;9.15;4.72;;;;;;;21.35;50.78;101556.78;4998997;28;20053;-63
2021/10/19 02:49:22;;;;;;;9.93;4.35;;;;;;;21.38;51.14;101564.56;5015395;28;20029;-62
2021/10/19 02:51:47;;;;;;;6.90;5.03;;;;;;;21.40;51.17;101550.75;5016319;28;20164;-62
2021/10/19 02:54:13;;;;;;;7.45;3.58;;;;;;;21.41;50.83;101553.28;5015520;28;20052;-62
2021/10/19 02:56:38;;;;;;;7.53;4.07;;;;;;;21.42;51.11;101549.56;5014968;28;20026;-62
2021/10/19 02:59:04;;;;;;;5.15;4.18;;;;;;;21.44;51.43;101558.38;5016016;28;20048;-62
2021/10/19 03:01:30;;;;;;;6.22;4.30;;;;;;;21.43;51.32;101548.53;5015555;28;20041;-62
2021/10/19 03:03:55;;;;;;;6.38;3.97;;;;;;;21.48;51.69;101556.16;5016444;28;20488;-62
2021/10/19 03:06:24;;;;;;;7.13;3.83;;;;;;;21.50;51.07;101550.53;5016747;28;20026;-62
2021/10/19 03:08:54;;;;;;;5.85;3.30;;;;;;;21.48;51.70;101554.28;5016544;28;20038;-62
2021/10/19 03:11:20;;;;;;;4.78;3.70;;;;;;;21.50;51.89;101553.25;4984164;28;20186;-62
2021/10/19 03:13:45;;;;;;;5.18;2.80;;;;;;;21.51;51.05;101552.22;5016394;28;20025;-62
2021/10/19 03:16:11;;;;;;;5.38;3.20;;;;;;;21.48;51.53;101554.28;5016781;28;20365;-62
2021/10/19 03:18:36;;;;;;;10.20;3.60;;;;;;;21.49;51.95;101555.13;5016578;28;20037;-62
2021/10/19 03:21:04;;;;;;;4.38;2.90;;;;;;;21.46;51.75;101555.50;5016889;28;20104;-61
2021/10/19 03:23:30;;;;;;;6.70;3.15;;;;;;;21.50;52.07;101558.72;5014725;28;20087;-61
2021/10/19 03:25:55;;;;;;;6.60;3.03;;;;;;;21.52;51.24;101570.28;5014896;28;20030;-61
2021/10/19 03:28:20;;;;;;;6.30;3.00;;;;;;;21.55;51.50;101557.13;5015995;28;20117;-62
2021/10/19 03:30:46;;;;;;;6.40;3.03;;;;;;;21.56;52.14;101555.22;5016118;28;20385;-62
2021/10/19 03:33:11;;;;;;;5.70;3.50;;;;;;;21.55;52.26;101548.09;4982393;28;20050;-62
2021/10/19 03:35:36;;;;;;;5.05;3.08;;;;;;;21.54;51.25;101551.84;5016321;28;20030;-62
2021/10/19 03:38:02;;;;;;;5.18;3.33;;;;;;;21.51;51.63;101552.22;4998443;28;20040;-62
2021/10/19 03:40:28;;;;;;;8.63;3.38;;;;;;;21.53;51.35;101559.16;5016661;28;20493;-62
2021/10/19 03:42:53;;;;;;;4.70;3.05;;;;;;;21.53;50.92;101552.88;5015540;28;20033;-62
2021/10/19 03:45:18;;;;;;;5.05;3.60;;;;;;;21.54;51.25;101551.84;5015836;28;20386;-62
2021/10/19 03:47:45;;;;;;;5.80;3.63;;;;;;;21.58;51.33;101555.91;5014825;28;20026;-61
2021/10/19 03:50:11;;;;;;;5.30;3.75;;;;;;;21.59;52.13;101560.31;5016433;28;20029;-62
2021/10/19 03:52:37;;;;;;;5.93;3.30;;;;;;;21.58;51.86;101559.47;5015333;28;20022;-62
2021/10/19 03:55:04;;;;;;;6.60;2.90;;;;;;;21.57;51.82;101551.47;5015336;28;20057;-62
2021/10/19 03:57:29;;;;;;;4.50;3.10;;;;;;;21.59;51.58;101557.59;5015035;28;20040;-62
2021/10/19 03:59:55;;;;;;;3.92;2.88;;;;;;;21.60;51.45;101551.13;5014287;28;20478;-62
2021/10/19 04:02:20;;;;;;;7.28;3.72;;;;;;;21.60;51.87;101540.22;5014962;28;20026;-61
2021/10/19 04:04:46;;;;;;;3.40;3.00;;;;;;;21.60;51.55;101551.13;5014385;28;20084;-62
2021/10/19 04:07:13;;;;;;;3.38;2.75;;;;;;;21.59;51.74;101538.50;5015516;28;20041;-63
2021/10/19 04:09:38;;;;;;;6.18;2.88;;;;;;;21.58;51.97;101536.84;5015708;28;20040;-61
2021/10/19 04:12:04;;;;;;;7.95;3.30;;;;;;;21.55;52.22;101538.03;5014855;28;20038;-61
2021/10/19 04:14:29;;;;;;;5.18;2.90;;;;;;;21.55;52.49;101537.19;5014121;28;20030;-61
2021/10/19 04:16:57;;;;;;;3.63;2.85;;;;;;;21.54;52.37;101541.78;5015387;28;20522;-62
2021/10/19 04:19:23;;;;;;;7.35;2.50;;;;;;;21.57;52.58;101540.56;5015186;28;20111;-62
2021/10/19 04:21:52;;;;;;;3.22;2.45;;;;;;;21.57;51.73;101535.97;5016758;28;20470;-62
2021/10/19 04:24:17;;;;;;;2.25;2.05;;;;;;;21.58;52.44;101542.28;4999336;28;20088;-62
2021/10/19 04:26:43;;;;;;;4.80;2.30;;;;;;;21.58;51.61;101539.56;5015042;28;20485;-61
2021/10/19 04:29:09;;;;;;;2.90;2.28;;;;;;;21.58;52.15;101531.38;5015170;28;20030;-62
2021/10/19 04:31:37;;;;;;;2.38;2.17;;;;;;;21.55;52.48;101524.41;5014727;28;20021;-62
2021/10/19 04:34:03;;;;;;;3.20;2.53;;;;;;;21.54;51.93;101532.75;5014760;28;20112;-61
2021/10/19 04:36:28;;;;;;;5.38;2.30;;;;;;;21.55;52.63;101531.75;5015019;28;20077;-62
2021/10/19 04:38:54;;;;;;;3.30;2.97;;;;;;;21.52;52.49;101532.09;5013514;28;20029;-61
2021/10/19 04:41:20;;;;;;;4.03;2.00;;;;;;;21.53;52.76;101539.22;5014570;28;20481;-62
2021/10/19 04:43:45;;;;;;;6.05;2.13;;;;;;;21.54;51.93;101532.75;5015009;28;20029;-62
2021/10/19 04:46:11;;;;;;;3.95;2.10;;;;;;;21.55;53.16;101537.19;5014815;28;20022;-62
2021/10/19 04:48:36;;;;;;;2.38;2.00;;;;;;;21.52;53.05;101532.97;5014665;28;20462;-62
2021/10/19 04:51:02;;;;;;;4.75;2.22;;;;;;;21.57;52.20;101535.13;5014061;28;20049;-62
2021/10/19 04:53:28;;;;;;;3.90;2.60;;;;;;;21.58;52.38;101543.09;5013821;28;20068;-62
2021/10/19 04:55:53;;;;;;;2.47;2.00;;;;;;;21.63;53.30;101545.31;5014706;28;20054;-62
2021/10/19 04:58:19;;;;;;;2.92;2.03;;;;;;;21.68;52.60;101542.88;5015425;28;20486;-61
2021/10/19 05:00:47;;;;;;;3.72;2.13;;;;;;;21.64;52.13;101533.34;5016227;28;20105;-61
2021/10/19 05:03:17;;;;;;;5.68;2.33;;;;;;;21.68;53.01;101540.13;5016295;28;20049;-62
2021/10/19 05:05:43;;;;;;;2.33;2.03;;;;;;;21.69;53.29;101544.56;5015152;28;20033;-63
2021/10/19 05:08:09;;;;;;;2.97;2.10;;;;;;;21.65;52.94;101526.88;5016447;28;20037;-63
2021/10/19 05:10:34;;;;;;;2.30;1.80;;;;;;;21.71;52.67;101537.03;5015429;28;20030;-63
2021/10/19 05:13:00;;;;;;;5.15;2.10;;;;;;;21.70;52.58;101530.75;5015008;28;20385;-63
2021/10/19 05:15:26;;;;;;;2.80;1.98;;;;;;;21.74;52.82;101531.22;5013541;28;20036;-63
2021/10/19 05:17:52;;;;;;;2.35;1.63;;;;;;;21.72;52.74;101530.56;5017270;28;20469;-63
2021/10/19 05:20:17;;;;;;;2.83;1.85;;;;;;;21.73;53.00;101529.50;5014741;28;20120;-63
2021/10/19 05:22:43;;;;;;;3.55;1.85;;;;;;;21.71;52.45;101531.59;5018388;28;20029;-63
2021/10/19 05:25:10;;;;;;;4.68;1.83;;;;;;;21.65;52.71;101527.72;5018670;28;20106;-63
2021/10/19 05:27:35;;;;;;;3.45;1.42;;;;;;;21.67;52.87;101519.34;5018719;28;20185;-63
2021/10/19 05:30:01;;;;;;;2.72;1.70;;;;;;;21.67;53.23;101519.34;5017090;28;20065;-63
2021/10/19 05:32:26;;;;;;;6.53;1.88;;;;;;;21.68;53.24;101527.34;5017980;28;20054;-63
2021/10/19 05:34:52;;;;;;;2.08;1.80;;;;;;;21.67;53.21;101531.09;5018128;28;20034;-63
2021/10/19 05:37:17;;;;;;;5.45;2.00;;;;;;;21.67;53.25;101535.69;5018343;28;20026;-63
2021/10/19 05:39:44;;;;;;;3.30;1.80;;;;;;;21.67;53.76;101535.69;5018134;28;20414;-63
2021/10/19 05:42:10;;;;;;;3.17;2.03;;;;;;;21.66;53.44;101531.31;5018241;28;20111;-63
2021/10/19 05:44:35;;;;;;;5.82;2.20;;;;;;;21.68;53.19;101531.97;5018507;28;20030;-63
2021/10/19 05:47:00;;;;;;;2.78;1.73;;;;;;;21.69;53.91;101529.03;5018289;28;20081;-64
2021/10/19 05:49:26;;;;;;;5.47;1.83;;;;;;;21.69;52.81;101530.94;5016769;28;20130;-63
2021/10/19 05:51:54;;;;;;;2.03;1.50;;;;;;;21.71;52.85;101524.25;5007915;28;20386;-63
2021/10/19 05:54:20;;;;;;;5.93;1.75;;;;;;;21.71;53.04;101520.69;5011277;28;20042;-63
2021/10/19 05:56:46;;;;;;;5.53;1.83;;;;;;;21.72;53.38;101519.66;5004301;28;20483;-63
2021/10/19 05:59:11;;;;;;;2.08;1.75;;;;;;;21.69;53.89;101522.75;5004232;28;20027;-63
2021/10/19 06:01:36;;;;;;;3.55;1.85;;;;;;;21.62;53.92;101510.88;5007285;28;20496;-62
2021/10/19 06:04:02;;;;;;;2.22;1.88;;;;;;;21.64;53.66;101508.81;5006466;28;20109;-63
2021/10/19 06:06:27;;;;;;;2.10;1.90;;;;;;;21.67;53.76;101508.44;5003952;28;20022;-62
2021/10/19 06:08:53;;;;;;;3.13;1.77;;;;;;;21.67;53.11;101513.88;4996801;28;20034;-63
2021/10/19 06:11:19;;;;;;;8.88;2.05;;;;;;;21.57;53.86;101491.50;4996479;28;20034;-63
2021/10/19 06:13:44;;;;;;;2.83;1.98;;;;;;;21.70;54.37;101516.25;4996748;28;20026;-62
2021/10/19 06:16:10;;;;;;;3.33;2.25;;;;;;;21.72;53.90;101516.94;4997388;28;20517;-62
2021/10/19 06:18:35;;;;;;;2.08;1.70;;;;;;;21.73;53.61;101513.16;4996289;28;20057;-62
2021/10/19 06:21:01;;;;;;;1.98;1.73;;;;;;;21.72;53.42;101512.28;4997269;28;20054;-62
2021/10/19 06:23:27;;;;;;;3.20;1.73;;;;;;;21.74;54.26;101510.25;4997470;28;20053;-62
2021/10/19 06:25:52;;;;;;;2.78;1.80;;;;;;;21.68;54.04;101493.78;4996947;28;20474;-62
2021/10/19 06:28:18;;;;;;;2.58;1.67;;;;;;;21.78;53.82;101510.72;4996766;28;20429;-62
2021/10/19 06:30:43;;;;;;;2.47;1.83;;;;;;;21.81;53.60;101511.19;4995793;28;20026;-62
2021/10/19 06:33:08;;;;;;;2.58;1.63;;;;;;;21.83;54.30;101516.47;4995152;28;20434;-63
2021/10/19 06:35:34;;;;;;;4.80;1.75;;;;;;;21.85;53.32;101517.13;4997352;28;20093;-63
2021/10/19 06:37:59;;;;;;;2.15;1.40;;;;;;;21.89;54.24;101519.31;4997017;28;20080;-62
2021/10/19 06:40:24;;;;;;;2.60;1.30;;;;;;;21.95;53.58;101525.91;4996968;28;20388;-62
2021/10/19 06:42:50;;;;;;;6.20;1.30;;;;;;;21.98;53.65;101525.56;4996585;28;20085;-62
2021/10/19 06:45:15;;;;;;;2.50;1.23;;;;;;;22.00;54.08;101527.06;4996855;28;20041;-62
2021/10/19 06:47:41;;;;;;;1.80;1.05;;;;;;;22.02;53.72;101532.34;5011519;28;20026;-62
2021/10/19 06:50:07;;;;;;;1.33;0.80;;;;;;;22.02;53.62;101529.63;4996609;28;20120;-62
2021/10/19 06:52:36;;;;;;;1.70;1.40;;;;;;;22.03;53.22;101525.84;4996464;28;20363;-62
2021/10/19 06:55:03;;;;;;;1.55;1.13;;;;;;;22.06;53.34;101525.47;4995451;28;20110;-62
2021/10/19 06:57:30;;;;;;;3.65;1.20;;;;;;;22.09;53.23;101522.34;4995124;28;20060;-63
2021/10/19 06:59:55;;;;;;;1.13;0.93;;;;;;;22.13;53.11;101518.25;4996605;28;20065;-61
2021/10/19 07:02:21;;;;;;;8.35;1.20;;;;;;;22.15;53.47;101534.41;4996339;28;20456;-62
2021/10/19 07:04:46;;;;;;;4.28;1.23;;;;;;;22.15;53.64;101527.06;4996639;28;20030;-62
2021/10/19 07:07:11;;;;;;;7.18;1.10;;;;;;;22.16;53.37;101528.78;4996451;28;20113;-62
2021/10/19 07:09:37;;;;;;;2.63;1.52;;;;;;;22.16;54.19;101525.19;4996463;28;20057;-62
2021/10/19 07:12:03;;;;;;;5.55;1.20;;;;;;;22.16;53.45;101517.88;4996656;28;20026;-62
2021/10/19 07:14:29;;;;;;;1.50;0.90;;;;;;;22.22;53.95;101519.81;4996206;28;20377;-61
2021/10/19 07:16:55;;;;;;;1.48;1.20;;;;;;;22.23;53.50;101532.44;4996440;28;20058;-62
2021/10/19 07:19:20;;;;;;;2.33;1.33;;;;;;;22.22;54.29;101533.47;4996067;28;20030;-62
2021/10/19 07:21:45;;;;;;;1.45;1.00;;;;;;;22.23;53.57;101535.16;4996106;28;20042;-62
2021/10/19 07:24:11;;;;;;;1.63;0.85;;;;;;;22.24;53.36;101528.69;4996023;28;20541;-61
2021/10/19 07:26:36;;;;;;;1.10;1.00;;;;;;;22.27;53.44;101535.66;4996037;28;20538;-63
2021/10/19 07:29:02;;;;;;;3.55;1.17;;;;;;;22.30;54.03;101533.41;4995565;28;20026;-64
2021/10/19 07:31:27;;;;;;;1.48;1.08;;;;;;;22.29;54.14;101533.56;4995761;28;20076;-62
2021/10/19 07:33:52;;;;;;;1.60;1.00;;;;;;;22.30;54.17;101538.88;4995648;28;20054;-61
2021/10/19 07:36:18;;;;;;;1.05;0.95;;;;;;;22.31;53.56;101536.94;4994897;28;20031;-63
2021/10/19 07:38:45;;;;;;;3.53;1.17;;;;;;;22.32;54.41;101544.13;4995328;28;20034;-64
2021/10/19 07:41:10;;;;;;;1.50;0.93;;;;;;;22.33;53.55;101543.94;4995152;28;20065;-63
2021/10/19 07:43:36;;;;;;;1.20;1.10;;;;;;;22.32;53.57;101550.44;4994658;28;20030;-64
2021/10/19 07:46:01;;;;;;;2.00;1.02;;;;;;;22.32;54.03;101527.75;4995830;28;20550;-65
2021/10/19 07:48:26;;;;;;;1.50;1.30;;;;;;;22.35;54.55;101530.94;4994911;28;20371;-66
2021/10/19 07:50:52;;;;;;;3.65;0.90;;;;;;;22.39;54.20;101537.72;4996742;28;20030;-65
2021/10/19 07:53:17;;;;;;;1.30;1.02;;;;;;;22.40;54.39;101538.56;4996040;28;20471;-63
2021/10/19 07:55:43;;;;;;;3.08;1.48;;;;;;;22.40;53.88;101542.16;4994615;28;20030;-64
2021/10/19 07:58:09;;;;;;;2.10;1.48;;;;;;;22.38;54.67;101541.50;4996059;28;20030;-62
2021/10/19 08:00:34;;;;;;;2.25;1.02;;;;;;;22.40;54.12;101550.34;4995978;28;20426;-63
2021/10/19 08:03:03;;;;;;;1.50;1.40;;;;;;;22.45;54.11;101549.75;4994268;28;20045;-62
2021/10/19 08:05:29;;;;;;;2.55;1.20;;;;;;;22.49;54.92;101549.22;4995233;28;20084;-64
2021/10/19 08:08:12;;;;;;;2.92;1.42;;;;;;;22.52;54.73;101553.44;4994106;28;20081;-65
2021/10/19 08:10:39;;;;;;;1.17;0.95;;;;;;;22.55;54.72;101553.06;5012442;28;20080;-65
2021/10/19 08:13:04;;;;;;;1.75;1.15;;;;;;;22.57;54.77;101549.09;5014817;28;20470;-63
2021/10/19 08:15:30;;;;;;;2.55;1.27;;;;;;;22.58;53.83;101550.78;5013428;28;20025;-63
2021/10/19 08:17:56;;;;;;;1.50;1.30;;;;;;;22.58;54.70;101553.50;5014405;28;20054;-70
2021/10/19 08:20:22;;;;;;;1.92;1.27;;;;;;;22.59;54.03;101549.75;5015200;28;20046;-65
2021/10/19 08:22:47;;;;;;;2.22;1.40;;;;;;;22.59;54.71;101548.91;5014720;28;20364;-65
2021/10/19 08:25:13;;;;;;;1.10;1.00;;;;;;;22.60;53.93;101556.91;5014752;28;20033;-64
2021/10/19 08:27:41;;;;;;;0.93;0.93;;;;;;;22.58;54.40;101553.50;5013177;28;20088;-63
2021/10/19 08:30:08;;;;;;;1.55;1.38;;;;;;;22.60;54.46;101562.38;5012623;28;20103;-63
2021/10/19 08:32:34;;;;;;;2.85;1.35;;;;;;;22.59;55.26;101554.38;4996384;28;20061;-64
2021/10/19 08:34:59;;;;;;;2.08;0.82;;;;;;;22.55;54.24;101558.53;5014851;28;20390;-63
2021/10/19 08:37:25;;;;;;;1.83;0.95;;;;;;;22.54;54.76;101554.09;5014200;28;20029;-63
2021/10/19 08:39:50;;;;;;;0.80;0.77;;;;;;;22.54;54.71;101557.69;4996365;28;20017;-64
2021/10/19 08:42:16;;;;;;;1.67;1.02;;;;;;;22.58;54.16;101563.63;4996424;28;20111;-63
2021/10/19 08:44:41;;;;;;;4.10;1.02;;;;;;;22.57;55.19;101553.72;5012648;28;20398;-61
2021/10/19 08:47:08;;;;;;;2.50;0.73;;;;;;;22.58;54.36;101558.16;5013359;28;20484;-60
2021/10/19 08:49:33;;;;;;;1.35;0.82;;;;;;;22.59;55.21;101560.69;5014302;28;20045;-60
2021/10/19 08:51:59;;;;;;;1.27;0.90;;;;;;;22.59;54.76;101557.94;5014061;28;20026;-60
2021/10/19 08:54:24;;;;;;;2.83;0.82;;;;;;;22.61;54.92;101558.59;5014086;28;20390;-60
2021/10/19 08:56:50;;;;;;;0.75;0.75;;;;;;;22.59;55.55;101557.94;5013630;28;20153;-59
2021/10/19 08:59:21;;;;;;;1.55;0.93;;;;;;;22.68;55.46;101557.88;5012355;28;20489;-60
2021/10/19 09:01:46;;;;;;;1.35;1.10;;;;;;;22.70;55.34;101553.09;5012473;28;20033;-61
2021/10/19 09:04:12;;;;;;;1.73;0.93;;;;;;;22.72;54.95;101553.75;5011999;28;20048;-60
2021/10/19 09:06:40;;;;;;;0.93;0.60;;;;;;;22.70;54.64;101555.81;5012369;28;20072;-60
2021/10/19 09:09:07;;;;;;;0.95;0.90;;;;;;;22.73;54.64;101560.88;5013813;28;20077;-60
2021/10/19 09:11:40;;;;;;;1.10;0.80;;;;;;;22.74;55.44;101557.13;5012286;28;20453;-61
2021/10/19 09:14:05;;;;;;;1.10;0.80;;;;;;;22.75;55.24;101556.94;5012193;28;20076;-61
2021/10/19 09:16:45;;;;;;;0.82;0.82;;;;;;;22.76;55.69;101534.03;5013170;28;20026;-61
2021/10/19 09:19:14;;;;;;;4.43;1.10;;;;;;;22.83;54.97;101555.97;5013506;28;20556;-62
2021/10/19 09:21:50;;;;;;;1.35;0.75;;;;;;;22.85;54.78;101542.97;5012226;28;20036;-61
2021/10/19 09:24:27;;;;;;;1.42;0.93;;;;;;;22.89;54.42;101545.09;5012736;28;20053;-62
2021/10/19 09:26:59;;;;;;;0.82;0.70;;;;;;;22.92;55.18;101552.09;5012069;28;20104;-62
2021/10/19 09:29:27;;;;;;;2.50;1.05;;;;;;;22.96;55.31;101551.53;5013623;28;20032;-62
2021/10/19 09:31:58;;;;;;;0.80;0.70;;;;;;;22.99;55.17;101556.59;5011858;28;20041;-62
2021/10/19 09:34:27;;;;;;;1.45;0.98;;;;;;;23.01;54.87;101550.94;5012567;28;20466;-62
2021/10/19 09:36:53;;;;;;;1.00;0.90;;;;;;;23.04;54.73;101542.34;5012742;28;20413;-63
2021/10/19 09:39:42;;;;;;;1.05;0.65;;;;;;;23.09;54.13;101548.94;5013557;28;20036;-62
2021/10/19 09:42:18;;;;;;;2.17;0.80;;;;;;;23.12;54.15;101548.53;5012132;28;20030;-62
2021/10/19 09:44:52;;;;;;;2.05;1.10;;;;;;;23.14;54.71;101551.09;5012113;28;20062;-62
2021/10/19 09:47:17;;;;;;;1.08;0.90;;;;;;;23.15;54.77;101553.63;5013661;28;20028;-63
2021/10/19 09:49:43;;;;;;;1.25;0.90;;;;;;;23.16;54.51;101552.59;5012544;28;20517;-62
2021/10/19 09:52:09;;;;;;;3.30;0.98;;;;;;;23.25;54.16;101555.22;5012218;28;20057;-63
2021/10/19 09:54:34;;;;;;;2.00;0.82;;;;;;;23.29;54.82;101551.88;5012603;28;20033;-63
2021/10/19 09:57:00;;;;;;;2.30;1.23;;;;;;;23.34;53.85;101549.41;5012085;28;20040;-62
2021/10/19 09:59:26;;;;;;;2.35;1.38;;;;;;;23.36;54.00;101552.81;5011880;28;20044;-63
2021/10/19 10:01:51;;;;;;;1.42;1.23;;;;;;;23.35;54.22;101556.56;5013192;28;20379;-63
2021/10/19 10:04:18;;;;;;;1.67;1.25;;;;;;;23.39;54.50;101562.53;5016574;28;20029;-63
2021/10/19 10:06:44;;;;;;;1.33;1.20;;;;;;;23.41;54.23;101561.31;5015475;28;20013;-63
2021/10/19 10:09:09;;;;;;;1.88;1.30;;;;;;;23.44;54.96;101560.91;5016040;28;20034;-63
2021/10/19 10:11:39;;;;;;;2.63;1.52;;;;;;;23.48;54.82;101562.19;5017005;28;20077;-63
2021/10/19 10:14:05;;;;;;;1.30;1.08;;;;;;;23.56;53.78;101569.44;5015811;28;20026;-63
2021/10/19 10:16:45;;;;;;;4.07;1.55;;;;;;;23.59;54.49;101574.53;5016226;28;20367;-63
2021/10/19 10:19:15;;;;;;;1.55;1.40;;;;;;;23.65;54.61;101569.09;5015762;28;20092;-63
2021/10/19 10:21:52;;;;;;;3.13;1.67;;;;;;;23.72;54.60;101580.13;4998935;28;20076;-63
2021/10/19 10:24:33;;;;;;;2.28;1.33;;;;;;;23.78;53.85;101571.94;5016047;28;20030;-63
2021/10/19 10:27:24;;;;;;;2.67;1.70;;;;;;;23.88;54.27;101576.25;5016615;28;20022;-63
2021/10/19 10:29:50;;;;;;;4.25;1.50;;;;;;;23.96;54.14;101581.56;4994889;28;20393;-63
2021/10/19 10:32:20;;;;;;;2.35;1.88;;;;;;;24.03;53.93;101577.00;4996367;28;20131;-63
2021/10/19 10:34:45;;;;;;;6.07;2.17;;;;;;;24.07;54.11;101572.81;4995495;28;20113;-64
2021/10/19 10:37:12;;;;;;;4.10;1.92;;;;;;;24.17;53.53;101567.88;4995713;28;20113;-63
2021/10/19 10:39:47;;;;;;;3.35;1.77;;;;;;;24.20;53.55;101568.31;5011259;28;20077;-63
2021/10/19 10:42:13;;;;;;;2.90;1.83;;;;;;;24.23;53.89;101564.34;4995100;28;20030;-63
2021/10/19 10:44:42;;;;;;;2.95;2.03;;;;;;;24.26;54.29;101561.22;4995406;28;20486;-63
2021/10/19 10:47:09;;;;;;;4.03;2.13;;;;;;;24.37;53.69;101562.53;4995587;28;20021;-63
2021/10/19 10:49:36;;;;;;;3.60;2.00;;;;;;;24.45;54.25;101565.97;4996486;28;20026;-63
2021/10/19 10:52:03;;;;;;;4.22;2.80;;;;;;;24.51;54.18;101558.84;4978834;28;20080;-63
2021/10/19 10:54:28;;;;;;;4.47;2.85;;;;;;;24.59;53.50;101555.94;4995297;28;20398;-63
2021/10/19 10:56:54;;;;;;;3.65;2.50;;;;;;;24.69;53.96;101559.97;4995003;28;20022;-63
2021/10/19 10:59:27;;;;;;;5.07;2.60;;;;;;;24.78;53.75;101566.97;4995396;28;20110;-63
2021/10/19 11:01:55;;;;;;;3.53;2.45;;;;;;;24.81;53.94;101555.66;4996167;28;20034;-63
2021/10/19 11:04:20;;;;;;;6.28;2.97;;;;;;;24.83;53.32;101549.94;5011268;28;20041;-63
2021/10/19 11:06:46;;;;;;;5.50;2.80;;;;;;;24.87;53.97;101552.06;4996469;28;20466;-63
2021/10/19 11:09:14;;;;;;;4.43;2.88;;;;;;;24.95;54.08;101544.72;4996244;28;20105;-64
2021/10/19 11:11:45;;;;;;;5.97;3.08;;;;;;;24.98;53.65;101547.06;4996242;28;20050;-63
2021/10/19 11:14:12;;;;;;;4.22;3.13;;;;;;;24.98;53.74;101549.81;4995195;28;20034;-63
2021/10/19 11:16:49;;;;;;;5.32;2.83;;;;;;;24.98;53.78;101544.31;4994628;28;20042;-63
2021/10/19 11:19:26;;;;;;;6.63;3.10;;;;;;;24.98;53.54;101544.31;4994799;28;20034;-63
2021/10/19 11:21:57;;;;;;;4.55;3.20;;;;;;;24.96;54.07;101541.75;4994406;28;20173;-63